Time;durP1;ratioP1;P1;durP2;ratioP2;P2;SDS_P1;SDS_P2;PMS_P1;PMS_P2;Temp;Humidity;BMP_temperature;BMP_pressure;BME280_temperature;BME280_humidity;BME280_pressure;Samples;Min_cycle;Max_cycle;Signal;HPM_P1;HPM_P2
2021/08/04 00:02:23;;;;;;;2.22;2.13;;;18.20;66.20;;;;;;5034606;28;20037;-87
2021/08/04 00:04:49;;;;;;;3.53;2.13;;;18.20;66.40;;;;;;5036009;28;20033;-85
2021/08/04 00:07:15;;;;;;;2.65;2.45;;;18.10;66.40;;;;;;5034234;28;20026;-87
2021/08/04 00:09:43;;;;;;;2.40;2.30;;;18.20;66.50;;;;;;5034932;28;20479;-86
2021/08/04 00:12:09;;;;;;;2.30;2.15;;;18.20;66.60;;;;;;5033982;28;20044;-87
2021/08/04 00:14:35;;;;;;;2.40;2.30;;;18.10;66.60;;;;;;5031330;28;20034;-86
2021/08/04 00:17:02;;;;;;;2.22;2.13;;;18.10;66.80;;;;;;5038036;28;20033;-86
2021/08/04 00:19:28;;;;;;;2.33;2.22;;;18.10;66.90;;;;;;5019430;28;20040;-86
2021/08/04 00:21:54;;;;;;;2.50;2.40;;;18.10;67.00;;;;;;5037689;28;20033;-86
2021/08/04 00:24:20;;;;;;;2.38;2.28;;;18.00;67.20;;;;;;5037934;28;20481;-85
2021/08/04 00:26:46;;;;;;;2.40;2.30;;;18.00;67.40;;;;;;5035129;28;20048;-86
2021/08/04 00:29:12;;;;;;;2.63;2.53;;;17.90;67.50;;;;;;5039727;28;20041;-86
2021/08/04 00:31:38;;;;;;;2.30;2.20;;;17.90;67.60;;;;;;5038657;28;20026;-86
2021/08/04 00:34:04;;;;;;;2.45;2.30;;;17.90;67.80;;;;;;5037256;28;20048;-86
2021/08/04 00:36:31;;;;;;;2.00;1.90;;;17.90;67.80;;;;;;5035349;28;20036;-85
2021/08/04 00:38:58;;;;;;;2.00;1.90;;;17.80;67.90;;;;;;5049949;28;20034;-87
2021/08/04 00:41:24;;;;;;;2.10;2.00;;;17.80;67.80;;;;;;5036839;28;20486;-86
2021/08/04 00:43:50;;;;;;;2.25;2.15;;;17.80;67.90;;;;;;5036908;28;20382;-85
2021/08/04 00:46:16;;;;;;;3.45;2.55;;;17.80;67.80;;;;;;5038002;28;20041;-86
2021/08/04 00:48:43;;;;;;;2.42;2.30;;;17.90;67.90;;;;;;5037994;28;20040;-86
2021/08/04 00:51:09;;;;;;;2.20;2.10;;;17.90;67.90;;;;;;5036448;28;20396;-85
2021/08/04 00:53:36;;;;;;;2.05;1.95;;;17.80;67.90;;;;;;5016951;28;20029;-86
2021/08/04 00:56:06;;;;;;;2.28;2.17;;;17.80;68.00;;;;;;5038589;28;20387;-85
2021/08/04 00:58:37;;;;;;;2.15;2.05;;;17.80;68.10;;;;;;5036990;28;20042;-85
2021/08/04 01:01:05;;;;;;;2.30;2.20;;;17.80;68.30;;;;;;5036206;28;20029;-86
2021/08/04 01:03:36;;;;;;;2.30;2.20;;;17.80;68.40;;;;;;5036771;28;20458;-86
2021/08/04 01:06:03;;;;;;;2.10;2.00;;;17.80;68.40;;;;;;5019243;28;20025;-86
2021/08/04 01:08:31;;;;;;;2.15;2.05;;;17.80;68.40;;;;;;5034063;28;20394;-85
2021/08/04 01:10:57;;;;;;;2.28;2.17;;;17.80;68.40;;;;;;5038565;28;20520;-86
2021/08/04 01:13:29;;;;;;;2.85;2.65;;;17.80;69.20;;;;;;5020287;28;20041;-86
2021/08/04 01:16:16;;;;;;;2.22;2.13;;;17.70;68.60;;;;;;5033784;28;20044;-86
2021/08/04 01:18:55;;;;;;;1.98;1.88;;;17.70;68.80;;;;;;5037794;28;20504;-86
2021/08/04 01:21:48;;;;;;;1.85;1.75;;;17.70;69.00;;;;;;5003811;28;20052;-86
2021/08/04 01:24:25;;;;;;;2.00;1.90;;;17.70;69.10;;;;;;4945502;28;20049;-86
2021/08/04 01:26:51;;;;;;;1.92;1.83;;;17.60;69.00;;;;;;4976196;28;20055;-87
2021/08/04 01:29:18;;;;;;;1.80;1.70;;;17.60;69.20;;;;;;4973598;28;20062;-85
2021/08/04 01:31:47;;;;;;;2.10;2.00;;;17.60;69.20;;;;;;4977556;28;20039;-86
2021/08/04 01:34:13;;;;;;;1.90;1.80;;;17.60;70.10;;;;;;4955739;28;20395;-87
2021/08/04 01:36:40;;;;;;;2.20;2.10;;;17.60;69.50;;;;;;4971782;28;20054;-86
2021/08/04 01:39:06;;;;;;;1.83;1.73;;;17.60;69.60;;;;;;4957638;28;20435;-86
2021/08/04 01:41:34;;;;;;;2.22;2.13;;;17.60;69.70;;;;;;4974099;28;20061;-86
2021/08/04 01:44:00;;;;;;;2.15;2.05;;;17.60;69.70;;;;;;4962291;28;20496;-86
2021/08/04 01:46:26;;;;;;;2.22;2.13;;;17.60;69.70;;;;;;4954474;28;20063;-87
2021/08/04 01:48:52;;;;;;;1.92;1.80;;;17.60;69.60;;;;;;4988872;28;20410;-86
2021/08/04 01:51:18;;;;;;;2.20;2.00;;;17.60;69.70;;;;;;4976252;28;20045;-86
2021/08/04 01:53:46;;;;;;;2.00;1.90;;;17.60;69.80;;;;;;4956645;28;20042;-85
2021/08/04 01:56:14;;;;;;;1.92;1.83;;;17.60;69.90;;;;;;4958057;28;20123;-84
2021/08/04 01:58:41;;;;;;;2.13;2.03;;;17.50;69.90;;;;;;4978341;28;20073;-86
2021/08/04 02:01:07;;;;;;;1.95;1.85;;;17.50;70.10;;;;;;4999275;28;20048;-85
2021/08/04 02:03:34;;;;;;;1.92;1.83;;;17.50;70.20;;;;;;5011137;28;20041;-86
2021/08/04 02:06:03;;;;;;;2.15;2.05;;;17.50;70.20;;;;;;5023899;28;20080;-86
2021/08/04 02:08:34;;;;;;;2.10;2.00;;;17.50;70.20;;;;;;5029378;28;20029;-87
2021/08/04 02:11:17;;;;;;;1.98;1.88;;;17.50;70.20;;;;;;5031801;28;20026;-85
2021/08/04 02:14:00;;;;;;;2.15;2.05;;;17.50;70.30;;;;;;5030250;28;20034;-85
2021/08/04 02:16:41;;;;;;;2.00;1.90;;;17.50;71.30;;;;;;5010633;28;20096;-87
2021/08/04 02:19:15;;;;;;;2.10;2.00;;;17.50;70.70;;;;;;5027529;28;20378;-86
2021/08/04 02:21:43;;;;;;;2.00;1.90;;;17.40;70.80;;;;;;5027642;28;20019;-85
2021/08/04 02:24:10;;;;;;;2.03;1.92;;;17.40;70.90;;;;;;5027867;28;20025;-86
2021/08/04 02:26:37;;;;;;;2.33;1.80;;;17.40;70.80;;;;;;5028046;28;20037;-85
2021/08/04 02:29:03;;;;;;;1.92;1.83;;;17.40;71.10;;;;;;5030022;28;20063;-85
2021/08/04 02:31:29;;;;;;;1.98;1.88;;;17.30;71.00;;;;;;5026715;28;20041;-85
2021/08/04 02:33:55;;;;;;;1.90;1.80;;;17.30;71.20;;;;;;5028388;28;20493;-85
2021/08/04 02:36:21;;;;;;;2.00;1.90;;;17.30;71.10;;;;;;5026758;28;20018;-86
2021/08/04 02:38:47;;;;;;;1.98;1.88;;;17.30;71.20;;;;;;5046006;28;20064;-86
2021/08/04 02:41:13;;;;;;;2.15;2.05;;;17.30;71.20;;;;;;5019322;28;20021;-86
2021/08/04 02:43:39;;;;;;;2.60;2.40;;;17.30;71.40;;;;;;5051654;28;20041;-86
2021/08/04 02:46:05;;;;;;;1.90;1.80;;;17.20;71.50;;;;;;5001681;28;20044;-85
2021/08/04 02:48:32;;;;;;;2.00;1.90;;;17.20;71.70;;;;;;5018471;28;20045;-85
2021/08/04 02:51:01;;;;;;;1.92;1.83;;;17.20;71.80;;;;;;5016274;28;20029;-85
2021/08/04 02:53:28;;;;;;;2.03;1.92;;;17.20;72.00;;;;;;5032157;28;20026;-87
2021/08/04 02:55:54;;;;;;;2.30;2.10;;;17.20;72.20;;;;;;5037083;28;20037;-87
2021/08/04 02:58:20;;;;;;;2.00;1.90;;;17.10;72.40;;;;;;5034456;28;20032;-86
2021/08/04 03:00:46;;;;;;;1.98;1.88;;;17.10;72.50;;;;;;5034365;28;20045;-85
2021/08/04 03:03:12;;;;;;;2.30;2.20;;;17.10;72.50;;;;;;5034511;28;20033;-86
2021/08/04 03:05:38;;;;;;;2.08;1.98;;;17.10;72.80;;;;;;5030883;28;20037;-85
2021/08/04 03:08:04;;;;;;;2.05;1.95;;;17.00;73.00;;;;;;5037262;28;20088;-85
2021/08/04 03:10:30;;;;;;;1.98;1.88;;;17.00;73.10;;;;;;5034411;28;20044;-84
2021/08/04 03:12:57;;;;;;;1.98;1.88;;;17.00;73.10;;;;;;5035425;28;20029;-85
2021/08/04 03:15:23;;;;;;;2.50;2.40;;;17.00;73.10;;;;;;5025327;28;20042;-85
2021/08/04 03:17:49;;;;;;;1.88;1.77;;;17.00;74.10;;;;;;5046855;28;20036;-85
2021/08/04 03:20:16;;;;;;;3.83;2.08;;;17.00;73.50;;;;;;5034600;28;20489;-85
2021/08/04 03:22:45;;;;;;;2.00;1.90;;;17.00;73.60;;;;;;5034991;28;20482;-85
2021/08/04 03:25:13;;;;;;;2.00;1.90;;;17.00;73.60;;;;;;5035554;28;20032;-85
2021/08/04 03:27:39;;;;;;;2.20;2.10;;;17.00;73.70;;;;;;5033932;28;20038;-85
2021/08/04 03:30:05;;;;;;;2.20;2.10;;;17.00;73.70;;;;;;5033853;28;20485;-83
2021/08/04 03:32:31;;;;;;;2.25;2.15;;;17.00;73.80;;;;;;5030993;28;20409;-84
2021/08/04 03:34:58;;;;;;;1.77;1.67;;;17.00;73.90;;;;;;5036012;28;20053;-84
2021/08/04 03:37:24;;;;;;;2.00;1.90;;;17.00;73.90;;;;;;5035274;28;20406;-84
2021/08/04 03:39:50;;;;;;;1.98;1.83;;;17.00;74.00;;;;;;5033919;28;20033;-84
2021/08/04 03:42:16;;;;;;;2.55;2.35;;;17.00;74.20;;;;;;5032840;28;20466;-84
2021/08/04 03:44:43;;;;;;;2.00;1.90;;;17.00;74.20;;;;;;5012072;28;20033;-85
2021/08/04 03:47:09;;;;;;;2.13;2.03;;;16.90;74.30;;;;;;5043731;28;20037;-84
2021/08/04 03:49:35;;;;;;;1.88;1.77;;;16.90;74.30;;;;;;5042034;28;20052;-85
2021/08/04 03:52:01;;;;;;;2.15;2.05;;;16.90;74.40;;;;;;5021307;28;20028;-86
2021/08/04 03:54:27;;;;;;;1.70;1.60;;;16.90;74.50;;;;;;5033473;28;20044;-83
2021/08/04 03:56:54;;;;;;;1.80;1.70;;;16.90;74.50;;;;;;5030711;28;20486;-84
2021/08/04 03:59:20;;;;;;;2.42;2.25;;;16.90;74.30;;;;;;5033107;28;20036;-84
2021/08/04 04:01:46;;;;;;;2.08;1.98;;;16.90;74.30;;;;;;5048733;28;20470;-84
2021/08/04 04:04:12;;;;;;;2.13;2.03;;;16.90;74.30;;;;;;5033722;28;20030;-84
2021/08/04 04:06:38;;;;;;;1.90;1.80;;;16.90;74.30;;;;;;5034808;28;20053;-83
2021/08/04 04:09:04;;;;;;;1.92;1.83;;;17.00;74.50;;;;;;5033372;28;20045;-83
2021/08/04 04:11:30;;;;;;;1.70;1.60;;;16.90;74.40;;;;;;5031693;28;20025;-84
2021/08/04 04:13:56;;;;;;;1.90;1.80;;;16.90;74.60;;;;;;5035576;28;20033;-82
2021/08/04 04:16:22;;;;;;;1.80;1.70;;;16.90;74.80;;;;;;5033268;28;20403;-84
2021/08/04 04:18:49;;;;;;;1.90;1.80;;;16.90;74.90;;;;;;5037939;28;20379;-84
2021/08/04 04:21:15;;;;;;;1.75;1.65;;;16.90;75.60;;;;;;5045975;28;20032;-84
2021/08/04 04:23:41;;;;;;;1.70;1.60;;;16.90;74.80;;;;;;5029321;28;20033;-84
2021/08/04 04:26:08;;;;;;;1.80;1.70;;;16.90;75.10;;;;;;5036342;28;20034;-83
2021/08/04 04:28:34;;;;;;;1.90;1.80;;;16.90;75.20;;;;;;5017049;28;20041;-84
2021/08/04 04:31:00;;;;;;;1.60;1.50;;;16.90;75.20;;;;;;5033047;28;20038;-84
2021/08/04 04:33:26;;;;;;;1.40;1.40;;;16.90;75.20;;;;;;5034495;28;20056;-85
2021/08/04 04:35:52;;;;;;;1.60;1.50;;;16.90;75.30;;;;;;5030459;28;20379;-83
2021/08/04 04:38:18;;;;;;;1.77;1.67;;;16.90;75.30;;;;;;5033406;28;20501;-84
2021/08/04 04:40:44;;;;;;;1.60;1.50;;;16.90;75.30;;;;;;5033989;28;20036;-83
2021/08/04 04:43:10;;;;;;;1.65;1.55;;;16.90;75.40;;;;;;5033278;28;20033;-84
2021/08/04 04:45:37;;;;;;;2.10;2.00;;;16.90;75.50;;;;;;5032671;28;20038;-83
2021/08/04 04:48:04;;;;;;;1.77;1.67;;;16.80;75.50;;;;;;5030445;28;20048;-83
2021/08/04 04:50:32;;;;;;;1.73;1.63;;;16.90;75.60;;;;;;5031488;28;20034;-84
2021/08/04 04:52:58;;;;;;;1.70;1.60;;;16.90;75.70;;;;;;5034469;28;20410;-84
2021/08/04 04:55:24;;;;;;;1.90;1.80;;;16.90;75.70;;;;;;5033004;28;20036;-83
2021/08/04 04:57:50;;;;;;;1.80;1.70;;;16.80;75.90;;;;;;5033245;28;20033;-84
2021/08/04 05:00:16;;;;;;;2.00;1.90;;;16.80;75.90;;;;;;5034124;28;20037;-84
2021/08/04 05:02:42;;;;;;;1.95;1.85;;;16.80;76.00;;;;;;5028425;28;20048;-83
2021/08/04 05:05:09;;;;;;;2.35;2.15;;;16.80;76.00;;;;;;5062565;28;20393;-84
2021/08/04 05:07:35;;;;;;;1.80;1.70;;;16.80;76.10;;;;;;5038321;28;20038;-83
2021/08/04 05:10:01;;;;;;;1.80;1.70;;;16.80;76.20;;;;;;5037668;28;20044;-83
2021/08/04 05:12:27;;;;;;;1.75;1.65;;;16.80;76.20;;;;;;5035405;28;20029;-83
2021/08/04 05:14:53;;;;;;;1.85;1.75;;;16.80;76.20;;;;;;5034148;28;20030;-83
2021/08/04 05:17:19;;;;;;;1.75;1.65;;;16.80;76.30;;;;;;5036539;28;20030;-83
2021/08/04 05:19:46;;;;;;;1.90;1.80;;;16.80;76.50;;;;;;5038780;28;20056;-83
2021/08/04 05:22:12;;;;;;;2.08;1.98;;;16.80;76.70;;;;;;5037714;28;20033;-83
2021/08/04 05:24:38;;;;;;;1.83;1.73;;;16.70;76.70;;;;;;5023541;28;20398;-83
2021/08/04 05:27:04;;;;;;;2.05;1.92;;;16.70;77.60;;;;;;5047801;28;20036;-85
2021/08/04 05:29:30;;;;;;;1.65;1.55;;;16.70;76.90;;;;;;5034536;28;20493;-84
2021/08/04 05:31:56;;;;;;;1.98;1.88;;;16.70;76.90;;;;;;5039161;28;20060;-84
2021/08/04 05:34:22;;;;;;;1.80;1.70;;;16.70;77.00;;;;;;5037822;28;20018;-84
2021/08/04 05:36:48;;;;;;;5.22;2.25;;;16.70;76.90;;;;;;5037166;28;20033;-84
2021/08/04 05:39:14;;;;;;;1.65;1.55;;;16.70;76.90;;;;;;5035342;28;20040;-84
2021/08/04 05:41:42;;;;;;;1.25;1.25;;;16.80;76.90;;;;;;5033081;28;20053;-84
2021/08/04 05:44:09;;;;;;;1.73;1.63;;;16.80;76.70;;;;;;5038088;28;20021;-84
2021/08/04 05:46:35;;;;;;;1.70;1.60;;;16.80;76.70;;;;;;5019444;28;20482;-84
2021/08/04 05:49:01;;;;;;;1.75;1.65;;;16.90;76.70;;;;;;5034627;28;20044;-83
2021/08/04 05:51:27;;;;;;;1.48;1.42;;;16.80;76.50;;;;;;5036337;28;20044;-83
2021/08/04 05:53:53;;;;;;;2.30;2.20;;;16.90;76.50;;;;;;5031764;28;20021;-83
2021/08/04 05:56:19;;;;;;;1.90;1.80;;;16.90;76.50;;;;;;5035665;28;20040;-85
2021/08/04 05:58:45;;;;;;;2.17;2.08;;;16.90;76.60;;;;;;5034780;28;20037;-82
2021/08/04 06:01:11;;;;;;;2.00;1.90;;;16.90;76.70;;;;;;5043137;28;20481;-83
2021/08/04 06:03:38;;;;;;;2.17;2.03;;;16.90;76.80;;;;;;5045246;28;20037;-84
2021/08/04 06:06:04;;;;;;;1.98;1.88;;;16.90;77.00;;;;;;5034022;28;20056;-84
2021/08/04 06:08:30;;;;;;;1.95;1.85;;;16.90;77.10;;;;;;4999765;28;20033;-83
2021/08/04 06:10:56;;;;;;;1.88;1.77;;;16.80;77.30;;;;;;5038693;28;20053;-84
2021/08/04 06:13:23;;;;;;;1.83;1.73;;;16.80;77.50;;;;;;5035338;28;20041;-84
2021/08/04 06:15:49;;;;;;;1.55;1.50;;;16.80;77.50;;;;;;5035572;28;20483;-83
2021/08/04 06:18:15;;;;;;;1.88;1.77;;;16.80;77.50;;;;;;5005229;28;20033;-86
2021/08/04 06:20:42;;;;;;;2.25;2.15;;;16.80;77.40;;;;;;5046686;28;20402;-84
2021/08/04 06:23:08;;;;;;;2.05;1.95;;;16.80;77.30;;;;;;5037077;28;20033;-85
2021/08/04 06:25:34;;;;;;;1.73;1.63;;;16.90;78.30;;;;;;5035643;28;20505;-83
2021/08/04 06:28:00;;;;;;;2.08;1.98;;;16.90;77.40;;;;;;5035391;28;20029;-83
2021/08/04 06:30:26;;;;;;;2.08;1.98;;;16.90;77.40;;;;;;5034559;28;20037;-83
2021/08/04 06:32:52;;;;;;;1.98;1.88;;;16.90;77.50;;;;;;5015783;28;20492;-83
2021/08/04 06:35:18;;;;;;;1.83;1.73;;;16.90;77.60;;;;;;5018318;28;20030;-83
2021/08/04 06:37:44;;;;;;;2.17;2.08;;;17.00;77.70;;;;;;5036188;28;20367;-83
2021/08/04 06:40:11;;;;;;;2.15;2.05;;;17.00;77.70;;;;;;5036334;28;20030;-83
2021/08/04 06:42:37;;;;;;;2.13;2.03;;;17.00;77.60;;;;;;5036215;28;20033;-82
2021/08/04 06:45:04;;;;;;;2.17;2.08;;;17.10;77.60;;;;;;5033157;28;20044;-83
2021/08/04 06:47:30;;;;;;;2.35;2.25;;;17.10;77.60;;;;;;5031410;28;20041;-81
2021/08/04 06:49:56;;;;;;;2.20;2.10;;;17.10;77.70;;;;;;5036163;28;20053;-82
2021/08/04 06:52:22;;;;;;;1.98;1.88;;;17.10;77.70;;;;;;5034605;28;20026;-83
2021/08/04 06:54:48;;;;;;;2.05;1.95;;;17.10;77.70;;;;;;5035890;28;20493;-84
2021/08/04 06:57:14;;;;;;;1.92;1.83;;;17.10;77.60;;;;;;5035888;28;20036;-83
2021/08/04 06:59:40;;;;;;;2.35;2.15;;;17.10;77.60;;;;;;5031086;28;20471;-82
2021/08/04 07:02:06;;;;;;;2.53;2.40;;;17.20;77.60;;;;;;5037220;28;20049;-82
2021/08/04 07:04:32;;;;;;;2.40;2.20;;;17.20;77.60;;;;;;5034496;28;20033;-83
2021/08/04 07:07:00;;;;;;;1.88;1.77;;;17.20;77.50;;;;;;5035538;28;20426;-83
2021/08/04 07:09:26;;;;;;;1.98;1.88;;;17.20;77.40;;;;;;5020644;28;20417;-82
2021/08/04 07:11:52;;;;;;;3.28;2.20;;;17.30;77.50;;;;;;5047279;28;20058;-82
2021/08/04 07:14:18;;;;;;;2.20;2.10;;;17.30;77.50;;;;;;5035707;28;20037;-82
2021/08/04 07:16:47;;;;;;;2.20;2.10;;;17.30;77.50;;;;;;5035835;28;20048;-83
2021/08/04 07:19:14;;;;;;;2.17;2.08;;;17.30;77.60;;;;;;5037661;28;20036;-83
2021/08/04 07:21:40;;;;;;;2.10;2.00;;;17.30;78.40;;;;;;5042203;28;20034;-83
2021/08/04 07:24:07;;;;;;;2.45;2.35;;;17.30;77.60;;;;;;5034432;28;20033;-83
2021/08/04 07:26:34;;;;;;;1.92;1.83;;;17.30;77.70;;;;;;5031154;28;20479;-83
2021/08/04 07:29:00;;;;;;;1.90;1.80;;;17.40;77.60;;;;;;5036027;28;20025;-83
2021/08/04 07:31:26;;;;;;;2.20;2.10;;;17.40;77.40;;;;;;5035013;28;20060;-85
2021/08/04 07:33:52;;;;;;;1.92;1.83;;;17.40;77.30;;;;;;5034010;28;20474;-84
2021/08/04 07:36:18;;;;;;;1.98;1.88;;;17.50;77.30;;;;;;5033992;28;20029;-80
2021/08/04 07:38:44;;;;;;;2.15;2.05;;;17.50;77.20;;;;;;5028439;28;20383;-84
2021/08/04 07:41:11;;;;;;;2.05;1.95;;;17.60;77.20;;;;;;5036908;28;20026;-82
2021/08/04 07:43:37;;;;;;;2.13;2.03;;;17.60;77.30;;;;;;5012051;28;20052;-83
2021/08/04 07:46:03;;;;;;;2.10;2.00;;;17.60;77.20;;;;;;5039470;28;20029;-83
2021/08/04 07:48:29;;;;;;;2.40;2.30;;;17.60;77.30;;;;;;5033360;28;20063;-82
2021/08/04 07:50:55;;;;;;;1.90;1.80;;;17.70;77.50;;;;;;5031486;28;20053;-83
2021/08/04 07:53:22;;;;;;;3.72;2.15;;;17.70;77.60;;;;;;5034144;28;20032;-83
2021/08/04 07:55:48;;;;;;;2.22;2.13;;;17.70;77.50;;;;;;5049318;28;20026;-83
2021/08/04 07:58:14;;;;;;;1.98;1.88;;;17.70;77.50;;;;;;5035078;28;20034;-83
2021/08/04 08:00:40;;;;;;;2.00;1.90;;;17.70;77.40;;;;;;5034622;28;20041;-84
2021/08/04 08:03:06;;;;;;;2.20;2.10;;;17.70;77.50;;;;;;5033624;28;20498;-83
2021/08/04 08:05:32;;;;;;;2.00;1.90;;;17.80;77.50;;;;;;5031733;28;20041;-84
2021/08/04 08:08:03;;;;;;;2.17;2.08;;;17.80;77.50;;;;;;5036675;28;20033;-83
2021/08/04 08:10:30;;;;;;;2.10;2.00;;;17.80;77.60;;;;;;5034849;28;20501;-84
2021/08/04 08:12:57;;;;;;;1.90;1.80;;;17.80;77.60;;;;;;5033927;28;20025;-83
2021/08/04 08:15:23;;;;;;;2.25;2.15;;;17.80;77.60;;;;;;5017068;28;20041;-84
2021/08/04 08:17:49;;;;;;;3.45;2.00;;;17.90;77.60;;;;;;5029487;28;20041;-84
2021/08/04 08:20:16;;;;;;;2.00;1.90;;;17.90;77.60;;;;;;5034524;28;20029;-84
2021/08/04 08:22:42;;;;;;;2.10;2.00;;;18.00;77.70;;;;;;5034089;28;20033;-84
2021/08/04 08:25:11;;;;;;;1.85;1.75;;;18.00;77.60;;;;;;5033632;28;20500;-84
2021/08/04 08:27:38;;;;;;;1.98;1.88;;;18.00;77.50;;;;;;5032335;28;20025;-83
2021/08/04 08:30:05;;;;;;;2.20;2.10;;;18.10;77.50;;;;;;5031653;28;20382;-83
2021/08/04 08:32:31;;;;;;;2.10;2.00;;;18.10;77.50;;;;;;5029861;28;20058;-82
2021/08/04 08:34:57;;;;;;;2.60;2.40;;;18.10;77.40;;;;;;5035322;28;20052;-82
2021/08/04 08:37:23;;;;;;;2.22;2.13;;;18.10;77.50;;;;;;5035205;28;20044;-83
2021/08/04 08:39:49;;;;;;;1.92;1.83;;;18.10;77.50;;;;;;5036783;28;20033;-83
2021/08/04 08:42:21;;;;;;;1.95;1.85;;;18.20;77.70;;;;;;5037608;28;20021;-81
2021/08/04 08:44:48;;;;;;;2.03;1.92;;;18.20;77.60;;;;;;5034734;28;20425;-81
2021/08/04 08:47:14;;;;;;;2.05;1.95;;;18.30;77.60;;;;;;5037644;28;20030;-83
2021/08/04 08:49:41;;;;;;;2.05;1.95;;;18.30;77.50;;;;;;5037214;28;20041;-83
2021/08/04 08:52:08;;;;;;;1.85;1.75;;;18.40;77.60;;;;;;5037377;28;20021;-82
2021/08/04 08:54:34;;;;;;;1.92;1.83;;;18.40;77.70;;;;;;5036285;28;20042;-84
2021/08/04 08:57:00;;;;;;;2.50;2.40;;;18.50;77.70;;;;;;5046931;28;20018;-83
2021/08/04 08:59:26;;;;;;;2.28;2.17;;;18.50;77.60;;;;;;5036396;28;20056;-84
2021/08/04 09:01:52;;;;;;;1.80;1.70;;;18.50;77.50;;;;;;5036246;28;20037;-84
2021/08/04 09:04:18;;;;;;;2.17;2.08;;;18.60;77.40;;;;;;5020772;28;20467;-84
2021/08/04 09:06:50;;;;;;;1.98;1.88;;;18.70;77.30;;;;;;5020102;28;20033;-85
2021/08/04 09:09:22;;;;;;;2.17;2.08;;;18.70;77.20;;;;;;5036805;28;20389;-85
2021/08/04 09:11:50;;;;;;;2.08;1.98;;;18.80;77.20;;;;;;5034450;28;20045;-84
2021/08/04 09:14:16;;;;;;;2.15;2.05;;;18.80;77.00;;;;;;5037032;28;20025;-84
2021/08/04 09:16:43;;;;;;;2.38;2.28;;;18.90;76.90;;;;;;5053158;28;20044;-85
2021/08/04 09:19:21;;;;;;;2.42;2.33;;;18.90;76.90;;;;;;5037743;28;20032;-83
2021/08/04 09:22:22;;;;;;;2.00;1.90;;;19.00;76.90;;;;;;5037693;28;20508;-83
2021/08/04 09:24:58;;;;;;;2.00;1.90;;;19.10;76.90;;;;;;5044299;28;20033;-84
2021/08/04 09:27:57;;;;;;;2.10;2.00;;;19.20;76.80;;;;;;5037270;28;20041;-84
2021/08/04 09:30:30;;;;;;;1.80;1.70;;;19.20;76.80;;;;;;4957320;28;20488;-84
2021/08/04 09:33:12;;;;;;;1.90;1.80;;;19.30;76.80;;;;;;4975412;28;20046;-84
2021/08/04 09:35:42;;;;;;;1.70;1.60;;;19.30;76.70;;;;;;4957988;28;20027;-84
2021/08/04 09:38:08;;;;;;;2.00;1.80;;;19.40;76.60;;;;;;4978352;28;20031;-84
2021/08/04 09:40:34;;;;;;;2.03;1.92;;;19.40;76.40;;;;;;4957052;28;20047;-84
2021/08/04 09:43:00;;;;;;;2.13;2.03;;;19.50;76.50;;;;;;4973358;28;20399;-84
2021/08/04 09:45:43;;;;;;;2.63;2.53;;;19.60;76.40;;;;;;4957972;28;20420;-85
2021/08/04 09:48:11;;;;;;;1.90;1.80;;;19.60;76.30;;;;;;4944196;28;20042;-84
2021/08/04 09:51:03;;;;;;;1.95;1.85;;;19.70;76.20;;;;;;4972685;28;20041;-84
2021/08/04 09:53:34;;;;;;;2.20;2.10;;;19.70;76.30;;;;;;4952276;28;20472;-83
2021/08/04 09:56:03;;;;;;;2.20;2.10;;;19.70;76.20;;;;;;4987924;28;20030;-84
2021/08/04 09:58:29;;;;;;;2.00;1.90;;;19.70;76.30;;;;;;4977805;28;20066;-84
2021/08/04 10:00:55;;;;;;;2.30;2.20;;;19.80;76.40;;;;;;4976388;28;20042;-84
2021/08/04 10:03:21;;;;;;;2.00;1.90;;;19.80;76.40;;;;;;4958448;28;20431;-83
2021/08/04 10:05:47;;;;;;;2.03;1.92;;;19.90;76.40;;;;;;4995434;28;20100;-82
2021/08/04 10:08:13;;;;;;;2.25;2.15;;;20.00;76.30;;;;;;5037216;28;20028;-84
2021/08/04 10:10:44;;;;;;;2.25;2.05;;;20.00;76.20;;;;;;5036912;28;20040;-84
2021/08/04 10:13:14;;;;;;;2.40;2.30;;;20.20;76.00;;;;;;5040332;28;20017;-84
2021/08/04 10:15:43;;;;;;;2.33;2.22;;;20.40;75.80;;;;;;5035028;28;20398;-84
2021/08/04 10:18:23;;;;;;;2.95;2.75;;;20.50;75.60;;;;;;5035830;28;20027;-84
2021/08/04 10:21:16;;;;;;;2.65;2.55;;;20.70;75.40;;;;;;5018348;28;20029;-85
2021/08/04 10:23:47;;;;;;;2.15;2.05;;;20.80;75.20;;;;;;5027761;28;20036;-84
2021/08/04 10:26:13;;;;;;;;;;;21.00;75.00;;;;;;5046814;28;20029;-86
2021/08/04 10:28:41;;;;;;;2.30;2.20;;;21.10;74.70;;;;;;5036666;28;19916;-84
2021/08/04 10:31:09;;;;;;;2.35;2.25;;;21.30;74.40;;;;;;5035891;28;20049;-85
2021/08/04 10:33:35;;;;;;;2.47;2.30;;;21.30;74.30;;;;;;5035420;28;20048;-85
2021/08/04 10:36:09;;;;;;;2.20;2.10;;;21.40;74.20;;;;;;5033670;28;20026;-85
2021/08/04 10:38:39;;;;;;;2.55;2.45;;;21.40;74.30;;;;;;5031135;28;20046;-85
2021/08/04 10:41:21;;;;;;;2.50;2.40;;;21.50;74.40;;;;;;5037156;28;20033;-83
2021/08/04 10:43:55;;;;;;;2.42;2.30;;;21.60;74.40;;;;;;5019270;28;20406;-83
2021/08/04 10:46:34;;;;;;;2.85;2.72;;;22.00;74.00;;;;;;5017346;28;20482;-84
2021/08/04 10:49:06;;;;;;;2.78;2.67;;;22.40;73.20;;;;;;5033494;28;20097;-85
2021/08/04 10:51:36;;;;;;;2.92;2.83;;;22.70;72.60;;;;;;5036164;28;20417;-85
2021/08/04 10:54:03;;;;;;;2.50;2.40;;;22.90;72.20;;;;;;5032703;28;20029;-86
2021/08/04 10:56:32;;;;;;;3.45;3.30;;;22.90;72.10;;;;;;5031289;28;20044;-87
2021/08/04 10:59:30;;;;;;;5.47;3.25;;;22.90;72.20;;;;;;5038004;28;20026;-84
2021/08/04 11:02:02;;;;;;;2.67;2.58;;;22.80;72.40;;;;;;5034927;28;20049;-85
2021/08/04 11:04:28;;;;;;;2.60;2.50;;;22.70;72.50;;;;;;5035816;28;20040;-85
2021/08/04 11:07:07;;;;;;;2.60;2.50;;;22.50;72.70;;;;;;5035846;28;20033;-85
2021/08/04 11:09:37;;;;;;;4.32;4.13;;;22.40;73.00;;;;;;5032602;28;20048;-85
2021/08/04 11:12:04;;;;;;;4.47;4.27;;;22.30;73.10;;;;;;5032482;28;20041;-85
2021/08/04 11:14:50;;;;;;;4.22;4.03;;;22.30;73.30;;;;;;5031690;28;20017;-85
2021/08/04 11:17:17;;;;;;;3.47;3.28;;;22.30;73.30;;;;;;5043563;28;20033;-84
2021/08/04 11:20:10;;;;;;;3.60;3.45;;;22.30;73.40;;;;;;5035154;28;20034;-85
2021/08/04 11:22:39;;;;;;;2.60;2.50;;;22.20;73.30;;;;;;5035502;28;20044;-86
2021/08/04 11:25:07;;;;;;;2.60;2.50;;;22.10;73.30;;;;;;5035242;28;20030;-85
2021/08/04 11:27:35;;;;;;;6.60;6.30;;;22.10;73.30;;;;;;5034451;28;20033;-85
2021/08/04 11:30:03;;;;;;;3.63;3.45;;;22.10;73.30;;;;;;5031493;28;20038;-85
2021/08/04 11:32:30;;;;;;;4.22;4.03;;;22.00;73.30;;;;;;5031167;28;20072;-85
2021/08/04 11:34:56;;;;;;;3.58;3.38;;;22.00;73.50;;;;;;5034256;28;20044;-84
2021/08/04 11:37:23;;;;;;;4.15;3.75;;;21.90;73.50;;;;;;5035241;28;20040;-85
2021/08/04 11:40:02;;;;;;;3.10;3.00;;;21.80;73.60;;;;;;5035027;28;20049;-87
2021/08/04 11:42:29;;;;;;;3.00;2.90;;;21.80;73.70;;;;;;5033860;28;20036;-86
2021/08/04 11:45:05;;;;;;;2.85;2.72;;;21.70;73.70;;;;;;5031439;28;20025;-85
2021/08/04 11:47:31;;;;;;;2.70;2.60;;;21.70;73.80;;;;;;5030344;28;20029;-85
2021/08/04 11:50:03;;;;;;;3.00;2.90;;;21.70;73.90;;;;;;5051223;28;20041;-86
2021/08/04 11:52:30;;;;;;;3.28;3.17;;;21.60;73.80;;;;;;5035298;28;20038;-85
2021/08/04 11:54:57;;;;;;;3.30;3.20;;;21.70;73.90;;;;;;5015961;28;20045;-85
2021/08/04 11:57:30;;;;;;;3.00;2.90;;;21.60;73.80;;;;;;5034730;28;20041;-85
2021/08/04 11:59:57;;;;;;;3.58;3.28;;;21.60;73.90;;;;;;5032105;28;20040;-84
2021/08/04 12:02:23;;;;;;;3.55;3.35;;;21.60;74.00;;;;;;5049580;28;20037;-84
2021/08/04 12:04:53;;;;;;;3.10;3.00;;;21.50;74.10;;;;;;5049592;28;20458;-85
2021/08/04 12:07:21;;;;;;;2.92;2.83;;;21.40;74.30;;;;;;5033603;28;20033;-84
2021/08/04 12:09:47;;;;;;;2.90;2.80;;;21.30;74.40;;;;;;5034217;28;20424;-84
2021/08/04 12:12:22;;;;;;;3.50;3.30;;;21.30;74.60;;;;;;5031254;28;20470;-84
2021/08/04 12:14:48;;;;;;;2.80;2.70;;;21.20;74.70;;;;;;5013044;28;20038;-85
2021/08/04 12:17:21;;;;;;;3.92;3.63;;;21.10;74.80;;;;;;5034118;28;20033;-83
2021/08/04 12:19:48;;;;;;;3.35;3.17;;;21.10;75.00;;;;;;5051546;28;20044;-84
2021/08/04 12:22:21;;;;;;;3.05;2.95;;;21.00;75.20;;;;;;5032419;28;20022;-84
2021/08/04 12:24:52;;;;;;;3.00;2.90;;;20.90;75.40;;;;;;5034491;28;20029;-87
2021/08/04 12:27:41;;;;;;;3.38;3.03;;;20.90;75.50;;;;;;5031988;28;20025;-84
2021/08/04 12:30:29;;;;;;;3.10;3.00;;;20.80;75.60;;;;;;5030624;28;20029;-82
2021/08/04 12:35:41;;;;;;;2.90;2.80;;;20.70;75.80;;;;;;5035465;28;20038;-85
2021/08/04 12:38:13;;;;;;;2.67;2.58;;;20.70;75.90;;;;;;5036212;28;20052;-84
2021/08/04 12:40:39;;;;;;;3.25;3.08;;;20.70;75.90;;;;;;5042215;28;20033;-84
2021/08/04 12:43:08;;;;;;;2.90;2.80;;;20.70;75.90;;;;;;5037448;28;20033;-84
2021/08/04 12:45:34;;;;;;;2.85;2.75;;;20.70;75.90;;;;;;5032912;28;20025;-85
2021/08/04 12:48:01;;;;;;;2.88;2.78;;;20.80;75.90;;;;;;5032549;28;20036;-84
2021/08/04 12:50:47;;;;;;;3.03;2.92;;;20.90;75.80;;;;;;5031185;28;20033;-85
2021/08/04 12:53:33;;;;;;;2.78;2.67;;;21.00;75.60;;;;;;5031518;28;20017;-85
2021/08/04 12:56:03;;;;;;;3.30;3.10;;;21.30;75.50;;;;;;5049291;28;20041;-83
2021/08/04 12:58:50;;;;;;;3.22;2.92;;;21.40;75.20;;;;;;5033706;28;20402;-85